sensor_id;sensor_type;location;lat;lon;timestamp;pressure;altitude;pressure_sealevel;temperature;humidity
14818;BME280;7500;57.698;11.986;2022-11-20T00:00:20;101815.38;;;3.34;100.00
14818;BME280;7500;57.698;11.986;2022-11-20T00:02:47;101811.88;;;3.35;100.00
14818;BME280;7500;57.698;11.986;2022-11-20T00:05:14;101817.13;;;3.33;100.00
14818;BME280;7500;57.698;11.986;2022-11-20T00:07:40;101816.25;;;3.36;100.00
14818;BME280;7500;57.698;11.986;2022-11-20T00:10:09;101810.16;;;3.34;100.00
14818;BME280;7500;57.698;11.986;2022-11-20T00:12:36;101814.47;;;3.37;100.00
14818;BME280;7500;57.698;11.986;2022-11-20T00:15:07;101814.47;;;3.37;100.00
14818;BME280;7500;57.698;11.986;2022-11-20T00:17:34;101821.47;;;3.33;100.00
14818;BME280;7500;57.698;11.986;2022-11-20T00:20:01;101820.63;;;3.29;100.00
14818;BME280;7500;57.698;11.986;2022-11-20T00:22:27;101824.97;;;3.30;100.00
14818;BME280;7500;57.698;11.986;2022-11-20T00:24:54;101810.19;;;3.29;100.00
14818;BME280;7500;57.698;11.986;2022-11-20T00:27:24;101811.91;;;3.30;100.00
14818;BME280;7500;57.698;11.986;2022-11-20T00:29:50;101823.19;;;3.33;100.00
14818;BME280;7500;57.698;11.986;2022-11-20T00:32:17;101818.84;;;3.36;100.00
14818;BME280;7500;57.698;11.986;2022-11-20T00:34:44;101813.63;;;3.39;100.00
14818;BME280;7500;57.698;11.986;2022-11-20T00:37:11;101807.53;;;3.37;100.00
14818;BME280;7500;57.698;11.986;2022-11-20T00:39:38;101817.13;;;3.30;100.00
14818;BME280;7500;57.698;11.986;2022-11-20T00:42:05;101818.88;;;3.31;100.00
14818;BME280;7500;57.698;11.986;2022-11-20T00:44:33;101813.63;;;3.29;100.00
14818;BME280;7500;57.698;11.986;2022-11-20T00:46:59;101804.09;;;3.27;100.00
14818;BME280;7500;57.698;11.986;2022-11-20T00:49:26;101818.84;;;3.33;100.00
14818;BME280;7500;57.698;11.986;2022-11-20T00:51:53;101818.88;;;3.31;100.00
14818;BME280;7500;57.698;11.986;2022-11-20T00:54:20;101813.63;;;3.33;100.00
14818;BME280;7500;57.698;11.986;2022-11-20T00:56:47;101817.09;;;3.31;100.00
14818;BME280;7500;57.698;11.986;2022-11-20T00:59:14;101812.84;;;3.15;100.00
14818;BME280;7500;57.698;11.986;2022-11-20T01:01:42;101816.34;;;3.14;100.00
14818;BME280;7500;57.698;11.986;2022-11-20T01:04:09;101826.75;;;3.16;100.00
14818;BME280;7500;57.698;11.986;2022-11-20T01:06:37;101819.81;;;3.12;100.00
14818;BME280;7500;57.698;11.986;2022-11-20T01:09:06;101818.97;;;3.08;100.00
14818;BME280;7500;57.698;11.986;2022-11-20T01:11:35;101808.56;;;3.01;100.00
14818;BME280;7500;57.698;11.986;2022-11-20T01:14:05;101826.75;;;3.19;100.00
14818;BME280;7500;57.698;11.986;2022-11-20T01:16:33;101822.41;;;3.22;100.00
14818;BME280;7500;57.698;11.986;2022-11-20T01:19:05;101831.06;;;3.23;100.00
14818;BME280;7500;57.698;11.986;2022-11-20T01:21:33;101842.38;;;3.25;100.00
14818;BME280;7500;57.698;11.986;2022-11-20T01:24:01;101832.78;;;3.25;100.00
14818;BME280;7500;57.698;11.986;2022-11-20T01:26:30;101831.06;;;3.23;100.00
14818;BME280;7500;57.698;11.986;2022-11-20T01:28:57;101836.31;;;3.21;100.00
14818;BME280;7500;57.698;11.986;2022-11-20T01:31:26;101838.06;;;3.19;100.00
14818;BME280;7500;57.698;11.986;2022-11-20T01:33:55;101836.31;;;3.17;100.00
14818;BME280;7500;57.698;11.986;2022-11-20T01:36:25;101824.16;;;3.20;100.00
14818;BME280;7500;57.698;11.986;2022-11-20T01:38:52;101831.06;;;3.23;100.00
14818;BME280;7500;57.698;11.986;2022-11-20T01:41:20;101836.25;;;3.27;100.00
14818;BME280;7500;57.698;11.986;2022-11-20T01:44:05;101830.22;;;3.21;100.00
14818;BME280;7500;57.698;11.986;2022-11-20T01:46:33;101825.88;;;3.21;100.00
14818;BME280;7500;57.698;11.986;2022-11-20T01:49:02;101823.25;;;3.26;100.00
14818;BME280;7500;57.698;11.986;2022-11-20T01:51:33;101808.44;;;3.28;100.00
14818;BME280;7500;57.698;11.986;2022-11-20T01:54:04;101815.41;;;3.23;100.00
14818;BME280;7500;57.698;11.986;2022-11-20T01:56:36;101806.81;;;3.06;100.00
14818;BME280;7500;57.698;11.986;2022-11-20T01:59:05;101808.53;;;3.07;100.00
14818;BME280;7500;57.698;11.986;2022-11-20T02:01:33;101811.97;;;3.12;100.00
14818;BME280;7500;57.698;11.986;2022-11-20T02:04:01;101803.31;;;3.08;100.00
14818;BME280;7500;57.698;11.986;2022-11-20T02:06:32;101800.75;;;3.04;100.00
14818;BME280;7500;57.698;11.986;2022-11-20T02:09:01;101792.00;;;3.09;100.00
14818;BME280;7500;57.698;11.986;2022-11-20T02:11:29;101789.38;;;3.12;100.00
14818;BME280;7500;57.698;11.986;2022-11-20T02:13:57;101780.63;;;3.21;100.00
14818;BME280;7500;57.698;11.986;2022-11-20T02:16:24;101782.34;;;3.23;100.00
14818;BME280;7500;57.698;11.986;2022-11-20T02:18:54;101790.19;;;3.25;100.00
14818;BME280;7500;57.698;11.986;2022-11-20T02:21:33;101782.34;;;3.26;100.00
14818;BME280;7500;57.698;11.986;2022-11-20T02:24:07;101784.09;;;3.26;100.00
14818;BME280;7500;57.698;11.986;2022-11-20T02:26:40;101777.13;;;3.28;100.00
14818;BME280;7500;57.698;11.986;2022-11-20T02:29:08;101772.75;;;3.33;100.00
14818;BME280;7500;57.698;11.986;2022-11-20T02:31:37;101777.13;;;3.31;100.00
14818;BME280;7500;57.698;11.986;2022-11-20T02:34:05;101776.22;;;3.30;100.00
14818;BME280;7500;57.698;11.986;2022-11-20T02:36:33;101770.16;;;3.28;100.00
14818;BME280;7500;57.698;11.986;2022-11-20T02:39:02;101774.50;;;3.29;100.00
14818;BME280;7500;57.698;11.986;2022-11-20T02:41:35;101778.00;;;3.30;100.00
14818;BME280;7500;57.698;11.986;2022-11-20T02:44:03;101775.44;;;3.22;100.00
14818;BME280;7500;57.698;11.986;2022-11-20T02:46:30;101779.78;;;3.19;100.00
14818;BME280;7500;57.698;11.986;2022-11-20T02:48:58;101775.41;;;3.21;100.00
14818;BME280;7500;57.698;11.986;2022-11-20T02:51:25;101769.31;;;3.25;100.00
14818;BME280;7500;57.698;11.986;2022-11-20T02:53:51;101771.06;;;3.20;100.00
14818;BME280;7500;57.698;11.986;2022-11-20T02:56:18;101775.44;;;3.18;100.00
14818;BME280;7500;57.698;11.986;2022-11-20T02:58:46;101765.88;;;3.14;100.00
14818;BME280;7500;57.698;11.986;2022-11-20T03:01:13;101769.38;;;3.13;100.00
14818;BME280;7500;57.698;11.986;2022-11-20T03:03:40;101765.09;;;3.06;100.00
14818;BME280;7500;57.698;11.986;2022-11-20T03:06:07;101763.34;;;3.03;100.00
14818;BME280;7500;57.698;11.986;2022-11-20T03:08:35;101766.84;;;3.04;100.00
14818;BME280;7500;57.698;11.986;2022-11-20T03:11:03;101767.69;;;3.06;100.00
14818;BME280;7500;57.698;11.986;2022-11-20T03:13:31;101763.34;;;3.00;100.00
14818;BME280;7500;57.698;11.986;2022-11-20T03:16:05;101765.09;;;3.00;100.00
14818;BME280;7500;57.698;11.986;2022-11-20T03:18:32;101758.13;;;3.05;100.00
14818;BME280;7500;57.698;11.986;2022-11-20T03:20:59;101753.78;;;3.04;100.00
14818;BME280;7500;57.698;11.986;2022-11-20T03:23:26;101747.72;;;3.02;100.00
14818;BME280;7500;57.698;11.986;2022-11-20T03:25:55;101747.75;;;2.93;100.00
14818;BME280;7500;57.698;11.986;2022-11-20T03:28:21;101757.28;;;2.98;100.00
14818;BME280;7500;57.698;11.986;2022-11-20T03:30:48;101758.16;;;2.94;100.00
14818;BME280;7500;57.698;11.986;2022-11-20T03:33:16;101751.25;;;2.89;100.00
14818;BME280;7500;57.698;11.986;2022-11-20T03:35:43;101759.03;;;2.96;100.00
14818;BME280;7500;57.698;11.986;2022-11-20T03:38:10;101739.06;;;2.91;100.00
14818;BME280;7500;57.698;11.986;2022-11-20T03:40:37;101756.44;;;2.95;100.00
14818;BME280;7500;57.698;11.986;2022-11-20T03:43:03;101750.38;;;2.90;100.00
14818;BME280;7500;57.698;11.986;2022-11-20T03:45:30;101766.03;;;2.88;100.00
14818;BME280;7500;57.698;11.986;2022-11-20T03:47:57;101752.09;;;2.89;100.00
14818;BME280;7500;57.698;11.986;2022-11-20T03:50:25;101756.44;;;2.92;100.00
14818;BME280;7500;57.698;11.986;2022-11-20T03:52:52;101752.06;;;2.92;100.00
14818;BME280;7500;57.698;11.986;2022-11-20T03:55:19;101756.44;;;2.92;100.00
14818;BME280;7500;57.698;11.986;2022-11-20T03:57:46;101743.38;;;3.01;100.00
14818;BME280;7500;57.698;11.986;2022-11-20T04:00:14;101738.94;;;3.09;100.00
14818;BME280;7500;57.698;11.986;2022-11-20T04:02:41;101732.00;;;3.08;100.00
14818;BME280;7500;57.698;11.986;2022-11-20T04:05:08;101726.84;;;3.02;100.00
14818;BME280;7500;57.698;11.986;2022-11-20T04:07:36;101725.97;;;3.00;100.00
14818;BME280;7500;57.698;11.986;2022-11-20T04:10:04;101715.56;;;2.89;100.00
14818;BME280;7500;57.698;11.986;2022-11-20T04:12:32;101725.97;;;2.95;100.00
14818;BME280;7500;57.698;11.986;2022-11-20T04:14:59;101726.84;;;3.02;100.00
14818;BME280;7500;57.698;11.986;2022-11-20T04:17:26;101724.22;;;2.97;100.00
14818;BME280;7500;57.698;11.986;2022-11-20T04:19:53;101708.63;;;2.91;100.00
14818;BME280;7500;57.698;11.986;2022-11-20T04:22:19;101716.44;;;2.96;100.00
14818;BME280;7500;57.698;11.986;2022-11-20T04:24:48;101721.63;;;2.99;100.00
14818;BME280;7500;57.698;11.986;2022-11-20T04:27:14;101725.13;;;2.95;100.00
14818;BME280;7500;57.698;11.986;2022-11-20T04:29:41;101714.69;;;2.98;100.00
14818;BME280;7500;57.698;11.986;2022-11-20T04:32:09;101706.00;;;2.96;100.00
14818;BME280;7500;57.698;11.986;2022-11-20T04:34:36;101710.41;;;2.85;100.00
14818;BME280;7500;57.698;11.986;2022-11-20T04:37:02;101708.63;;;2.91;100.00
14818;BME280;7500;57.698;11.986;2022-11-20T04:39:29;101705.13;;;2.92;100.00
14818;BME280;7500;57.698;11.986;2022-11-20T04:41:57;101707.75;;;2.94;100.00
14818;BME280;7500;57.698;11.986;2022-11-20T04:44:38;101694.69;;;2.92;100.00
14818;BME280;7500;57.698;11.986;2022-11-20T04:47:05;101694.75;;;2.82;100.00
14818;BME280;7500;57.698;11.986;2022-11-20T04:49:31;101693.03;;;2.78;100.00
14818;BME280;7500;57.698;11.986;2022-11-20T04:51:59;101691.31;;;2.78;100.00
14818;BME280;7500;57.698;11.986;2022-11-20T04:54:26;101690.47;;;2.76;100.00
14818;BME280;7500;57.698;11.986;2022-11-20T04:56:52;101684.41;;;2.71;100.00
14818;BME280;7500;57.698;11.986;2022-11-20T04:59:21;101700.06;;;2.67;100.00
14818;BME280;7500;57.698;11.986;2022-11-20T05:01:48;101683.63;;;2.50;100.00
14818;BME280;7500;57.698;11.986;2022-11-20T05:04:14;101688.78;;;2.65;100.00
14818;BME280;7500;57.698;11.986;2022-11-20T05:06:41;101683.53;;;2.71;100.00
14818;BME280;7500;57.698;11.986;2022-11-20T05:09:08;101684.34;;;2.80;100.00
14818;BME280;7500;57.698;11.986;2022-11-20T05:11:35;101686.94;;;2.82;100.00
14818;BME280;7500;57.698;11.986;2022-11-20T05:14:02;101673.88;;;2.88;100.00
14818;BME280;7500;57.698;11.986;2022-11-20T05:16:30;101674.72;;;2.93;100.00
14818;BME280;7500;57.698;11.986;2022-11-20T05:18:57;101671.25;;;2.91;100.00
14818;BME280;7500;57.698;11.986;2022-11-20T05:21:24;101664.31;;;2.90;100.00
14818;BME280;7500;57.698;11.986;2022-11-20T05:23:50;101661.75;;;2.78;100.00
14818;BME280;7500;57.698;11.986;2022-11-20T05:26:19;101660.88;;;2.79;100.00
14818;BME280;7500;57.698;11.986;2022-11-20T05:28:47;101647.06;;;2.66;100.00
14818;BME280;7500;57.698;11.986;2022-11-20T05:31:15;101656.63;;;2.69;100.00
14818;BME280;7500;57.698;11.986;2022-11-20T05:33:44;101653.13;;;2.68;100.00
14818;BME280;7500;57.698;11.986;2022-11-20T05:36:13;101656.56;;;2.73;100.00
14818;BME280;7500;57.698;11.986;2022-11-20T05:38:40;101647.00;;;2.74;100.00
14818;BME280;7500;57.698;11.986;2022-11-20T05:41:10;101635.75;;;2.72;100.00
14818;BME280;7500;57.698;11.986;2022-11-20T05:43:39;101634.84;;;2.77;100.00
14818;BME280;7500;57.698;11.986;2022-11-20T05:46:08;101632.19;;;2.82;100.00
14818;BME280;7500;57.698;11.986;2022-11-20T05:48:36;101632.22;;;2.73;100.00
14818;BME280;7500;57.698;11.986;2022-11-20T05:51:06;101634.81;;;2.76;100.00
14818;BME280;7500;57.698;11.986;2022-11-20T05:53:33;101633.94;;;2.81;100.00
14818;BME280;7500;57.698;11.986;2022-11-20T05:56:01;101636.50;;;2.86;100.00
14818;BME280;7500;57.698;11.986;2022-11-20T05:58:28;101624.41;;;2.73;100.00
14818;BME280;7500;57.698;11.986;2022-11-20T06:01:03;101637.44;;;2.73;100.00
14818;BME280;7500;57.698;11.986;2022-11-20T06:03:30;101632.19;;;2.83;100.00
14818;BME280;7500;57.698;11.986;2022-11-20T06:05:58;101636.50;;;2.86;100.00
14818;BME280;7500;57.698;11.986;2022-11-20T06:08:27;101613.06;;;2.87;100.00
14818;BME280;7500;57.698;11.986;2022-11-20T06:10:54;101623.41;;;2.98;100.00
14818;BME280;7500;57.698;11.986;2022-11-20T06:13:20;101620.81;;;2.93;100.00
14818;BME280;7500;57.698;11.986;2022-11-20T06:15:48;101623.38;;;3.02;100.00
14818;BME280;7500;57.698;11.986;2022-11-20T06:18:15;101618.09;;;3.11;100.00
14818;BME280;7500;57.698;11.986;2022-11-20T06:20:42;101608.53;;;3.09;100.00
14818;BME280;7500;57.698;11.986;2022-11-20T06:23:09;101604.25;;;2.97;100.00
14818;BME280;7500;57.698;11.986;2022-11-20T06:25:38;101548.03;;;2.62;100.00
14818;BME280;7500;57.698;11.986;2022-11-20T06:28:06;101609.44;;;3.03;100.00
14818;BME280;7500;57.698;11.986;2022-11-20T06:30:32;101599.81;;;3.10;100.00
14818;BME280;7500;57.698;11.986;2022-11-20T06:32:59;101597.28;;;3.02;100.00
14818;BME280;7500;57.698;11.986;2022-11-20T06:35:26;101603.34;;;3.06;100.00
14818;BME280;7500;57.698;11.986;2022-11-20T06:37:53;101592.97;;;2.97;100.00
14818;BME280;7500;57.698;11.986;2022-11-20T06:40:20;101591.19;;;3.05;100.00
14818;BME280;7500;57.698;11.986;2022-11-20T06:42:48;101591.22;;;3.02;100.00
14818;BME280;7500;57.698;11.986;2022-11-20T06:45:15;101603.44;;;2.92;100.00
14818;BME280;7500;57.698;11.986;2022-11-20T06:47:41;101603.44;;;2.89;100.00
14818;BME280;7500;57.698;11.986;2022-11-20T06:50:08;101596.50;;;2.90;100.00
14818;BME280;7500;57.698;11.986;2022-11-20T06:52:35;101596.50;;;2.90;100.00
14818;BME280;7500;57.698;11.986;2022-11-20T06:55:03;101598.25;;;2.91;100.00
14818;BME280;7500;57.698;11.986;2022-11-20T06:57:29;101594.69;;;2.99;100.00
14818;BME280;7500;57.698;11.986;2022-11-20T06:59:58;101593.84;;;2.96;100.00
14818;BME280;7500;57.698;11.986;2022-11-20T07:02:24;101599.09;;;2.93;100.00
14818;BME280;7500;57.698;11.986;2022-11-20T07:04:51;101593.91;;;2.90;100.00
14818;BME280;7500;57.698;11.986;2022-11-20T07:07:18;101586.06;;;2.90;100.00
14818;BME280;7500;57.698;11.986;2022-11-20T07:09:45;101591.31;;;2.87;100.00
14818;BME280;7500;57.698;11.986;2022-11-20T07:12:11;101587.81;;;2.88;100.00
14818;BME280;7500;57.698;11.986;2022-11-20T07:14:38;101584.28;;;2.93;100.00
14818;BME280;7500;57.698;11.986;2022-11-20T07:17:06;101586.06;;;2.93;100.00
14818;BME280;7500;57.698;11.986;2022-11-20T07:19:33;101584.13;;;3.16;100.00
14818;BME280;7500;57.698;11.986;2022-11-20T07:22:00;101578.88;;;3.19;100.00
14818;BME280;7500;57.698;11.986;2022-11-20T07:24:27;101578.09;;;3.08;100.00
14818;BME280;7500;57.698;11.986;2022-11-20T07:26:53;101579.94;;;2.95;100.00
14818;BME280;7500;57.698;11.986;2022-11-20T07:29:20;101568.66;;;2.95;100.00
14818;BME280;7500;57.698;11.986;2022-11-20T07:31:47;101569.50;;;3.00;100.00
14818;BME280;7500;57.698;11.986;2022-11-20T07:34:15;101570.28;;;3.08;100.00
14818;BME280;7500;57.698;11.986;2022-11-20T07:36:42;101565.09;;;3.05;100.00
14818;BME280;7500;57.698;11.986;2022-11-20T07:39:09;101573.72;;;3.10;100.00
14818;BME280;7500;57.698;11.986;2022-11-20T07:41:36;101573.75;;;3.07;100.00
14818;BME280;7500;57.698;11.986;2022-11-20T07:44:03;101565.88;;;3.14;100.00
14818;BME280;7500;57.698;11.986;2022-11-20T07:46:29;101557.16;;;3.21;100.00
14818;BME280;7500;57.698;11.986;2022-11-20T07:48:56;101551.03;;;3.21;100.00
14818;BME280;7500;57.698;11.986;2022-11-20T07:51:25;101549.41;;;3.09;100.00
14818;BME280;7500;57.698;11.986;2022-11-20T07:53:52;101551.97;;;3.15;100.00
14818;BME280;7500;57.698;11.986;2022-11-20T07:56:19;101543.34;;;3.04;100.00
14818;BME280;7500;57.698;11.986;2022-11-20T07:58:46;101539.03;;;3.03;100.00
14818;BME280;7500;57.698;11.986;2022-11-20T08:01:13;101547.59;;;3.16;100.00
14818;BME280;7500;57.698;11.986;2022-11-20T08:03:40;101534.47;;;3.23;100.00
14818;BME280;7500;57.698;11.986;2022-11-20T08:06:07;101540.53;;;3.30;100.00
14818;BME280;7500;57.698;11.986;2022-11-20T08:08:35;101539.66;;;3.31;100.00
14818;BME280;7500;57.698;11.986;2022-11-20T08:11:04;101545.72;;;3.31;100.00
14818;BME280;7500;57.698;11.986;2022-11-20T08:13:49;101530.88;;;3.36;100.00
14818;BME280;7500;57.698;11.986;2022-11-20T08:16:33;101539.59;;;3.35;100.00
14818;BME280;7500;57.698;11.986;2022-11-20T08:18:59;101533.56;;;3.29;100.00
14818;BME280;7500;57.698;11.986;2022-11-20T08:21:26;101537.88;;;3.31;100.00
14818;BME280;7500;57.698;11.986;2022-11-20T08:23:54;101538.78;;;3.30;100.00
14818;BME280;7500;57.698;11.986;2022-11-20T08:26:21;101530.94;;;3.30;100.00
14818;BME280;7500;57.698;11.986;2022-11-20T08:28:49;101542.22;;;3.33;100.00
14818;BME280;7500;57.698;11.986;2022-11-20T08:31:15;101531.75;;;3.39;100.00
14818;BME280;7500;57.698;11.986;2022-11-20T08:33:42;101534.28;;;3.42;100.00
14818;BME280;7500;57.698;11.986;2022-11-20T08:36:09;101525.66;;;3.37;100.00
14818;BME280;7500;57.698;11.986;2022-11-20T08:38:36;101527.41;;;3.37;100.00
14818;BME280;7500;57.698;11.986;2022-11-20T08:41:05;101527.41;;;3.38;100.00
14818;BME280;7500;57.698;11.986;2022-11-20T08:43:52;101518.59;;;3.47;100.00
14818;BME280;7500;57.698;11.986;2022-11-20T08:46:19;101527.34;;;3.43;100.00
14818;BME280;7500;57.698;11.986;2022-11-20T08:48:46;101540.41;;;3.43;100.00
14818;BME280;7500;57.698;11.986;2022-11-20T08:51:13;101522.84;;;3.55;100.00
14818;BME280;7500;57.698;11.986;2022-11-20T08:53:40;101522.88;;;3.52;100.00
14818;BME280;7500;57.698;11.986;2022-11-20T08:56:09;101514.25;;;3.46;100.00
14818;BME280;7500;57.698;11.986;2022-11-20T08:58:36;101536.78;;;3.54;100.00
14818;BME280;7500;57.698;11.986;2022-11-20T09:01:03;101525.38;;;3.64;100.00
14818;BME280;7500;57.698;11.986;2022-11-20T09:03:30;101515.72;;;3.72;100.00
14818;BME280;7500;57.698;11.986;2022-11-20T09:05:58;101507.88;;;3.72;100.00
14818;BME280;7500;57.698;11.986;2022-11-20T09:08:26;101519.28;;;3.65;100.00
14818;BME280;7500;57.698;11.986;2022-11-20T09:10:53;101513.16;;;3.66;100.00
14818;BME280;7500;57.698;11.986;2022-11-20T09:13:22;101520.00;;;3.76;100.00
14818;BME280;7500;57.698;11.986;2022-11-20T09:15:53;101514.75;;;3.79;100.00
14818;BME280;7500;57.698;11.986;2022-11-20T09:18:20;101515.56;;;3.86;100.00
14818;BME280;7500;57.698;11.986;2022-11-20T09:20:47;101514.66;;;3.87;100.00
14818;BME280;7500;57.698;11.986;2022-11-20T09:23:14;101504.31;;;3.78;100.00
14818;BME280;7500;57.698;11.986;2022-11-20T09:25:41;101512.09;;;3.82;100.00
14818;BME280;7500;57.698;11.986;2022-11-20T09:28:08;101501.72;;;3.76;100.00
14818;BME280;7500;57.698;11.986;2022-11-20T09:30:36;101503.34;;;3.86;100.00
14818;BME280;7500;57.698;11.986;2022-11-20T09:33:06;101481.66;;;3.78;100.00
14818;BME280;7500;57.698;11.986;2022-11-20T09:35:33;101491.91;;;3.96;100.00
14818;BME280;7500;57.698;11.986;2022-11-20T09:38:04;101489.38;;;3.90;100.00
14818;BME280;7500;57.698;11.986;2022-11-20T09:40:32;101483.28;;;3.90;100.00
14818;BME280;7500;57.698;11.986;2022-11-20T09:43:03;101482.38;;;3.92;100.00
14818;BME280;7500;57.698;11.986;2022-11-20T09:45:47;101478.09;;;3.85;100.00
14818;BME280;7500;57.698;11.986;2022-11-20T09:48:38;101471.13;;;3.87;100.00
14818;BME280;7500;57.698;11.986;2022-11-20T09:51:16;101473.66;;;3.92;100.00
14818;BME280;7500;57.698;11.986;2022-11-20T09:53:56;101458.88;;;3.92;100.00
14818;BME280;7500;57.698;11.986;2022-11-20T09:56:28;101457.19;;;3.88;100.00
14818;BME280;7500;57.698;11.986;2022-11-20T09:58:58;101452.06;;;3.81;100.00
14818;BME280;7500;57.698;11.986;2022-11-20T10:01:31;101452.09;;;3.78;100.00
14818;BME280;7500;57.698;11.986;2022-11-20T10:04:02;101445.16;;;3.77;100.00
14818;BME280;7500;57.698;11.986;2022-11-20T10:06:31;101451.31;;;3.71;100.00
14818;BME280;7500;57.698;11.986;2022-11-20T10:09:06;101449.50;;;3.76;100.00
14818;BME280;7500;57.698;11.986;2022-11-20T10:11:44;101441.66;;;3.76;100.00
14818;BME280;7500;57.698;11.986;2022-11-20T10:14:23;101404.47;;;3.58;100.00
14818;BME280;7500;57.698;11.986;2022-11-20T10:17:01;101457.31;;;3.76;100.00
14818;BME280;7500;57.698;11.986;2022-11-20T10:19:58;101437.28;;;3.78;100.00
14818;BME280;7500;57.698;11.986;2022-11-20T10:22:43;101448.59;;;3.79;100.00
14818;BME280;7500;57.698;11.986;2022-11-20T10:25:15;101439.13;;;3.73;100.00
14818;BME280;7500;57.698;11.986;2022-11-20T10:30:47;101432.19;;;3.69;100.00
14818;BME280;7500;57.698;11.986;2022-11-20T10:33:21;101433.03;;;3.71;100.00
14818;BME280;7500;57.698;11.986;2022-11-20T10:35:52;101425.97;;;3.76;100.00
14818;BME280;7500;57.698;11.986;2022-11-20T10:38:25;101413.97;;;3.66;100.00
14818;BME280;7500;57.698;11.986;2022-11-20T10:40:55;101416.38;;;3.78;100.00
14818;BME280;7500;57.698;11.986;2022-11-20T10:43:44;101419.03;;;3.77;100.00
14818;BME280;7500;57.698;11.986;2022-11-20T10:46:14;101419.03;;;3.75;100.00
14818;BME280;7500;57.698;11.986;2022-11-20T10:48:44;101408.56;;;3.80;100.00
14818;BME280;7500;57.698;11.986;2022-11-20T10:51:18;101404.13;;;3.83;100.00
14818;BME280;7500;57.698;11.986;2022-11-20T10:54:05;101401.56;;;3.80;100.00
14818;BME280;7500;57.698;11.986;2022-11-20T10:56:40;101394.56;;;3.82;100.00
14818;BME280;7500;57.698;11.986;2022-11-20T11:02:16;101373.47;;;3.96;100.00
14818;BME280;7500;57.698;11.986;2022-11-20T11:04:45;101377.81;;;3.98;100.00
14818;BME280;7500;57.698;11.986;2022-11-20T11:07:16;101374.22;;;4.04;100.00
14818;BME280;7500;57.698;11.986;2022-11-20T11:09:47;101366.31;;;4.08;100.00
14818;BME280;7500;57.698;11.986;2022-11-20T11:12:14;101372.38;;;4.12;100.00
14818;BME280;7500;57.698;11.986;2022-11-20T11:14:43;101368.09;;;4.08;100.00
14818;BME280;7500;57.698;11.986;2022-11-20T11:17:21;101367.94;;;4.17;100.00
14818;BME280;7500;57.698;11.986;2022-11-20T11:20:02;101368.84;;;4.16;100.00
14818;BME280;7500;57.698;11.986;2022-11-20T11:22:31;101369.00;;;4.05;100.00
14818;BME280;7500;57.698;11.986;2022-11-20T11:24:58;101360.50;;;3.91;100.00
14818;BME280;7500;57.698;11.986;2022-11-20T11:27:25;101348.28;;;3.93;100.00
14818;BME280;7500;57.698;11.986;2022-11-20T11:30:03;101362.00;;;4.06;100.00
14818;BME280;7500;57.698;11.986;2022-11-20T11:32:37;101360.69;;;3.78;100.00
14818;BME280;7500;57.698;11.986;2022-11-20T11:35:11;101353.66;;;3.83;100.00
14818;BME280;7500;57.698;11.986;2022-11-20T11:37:45;101340.38;;;3.98;100.00
14818;BME280;7500;57.698;11.986;2022-11-20T11:40:14;101342.00;;;4.06;100.00
14818;BME280;7500;57.698;11.986;2022-11-20T11:42:42;101336.03;;;3.97;100.00
14818;BME280;7500;57.698;11.986;2022-11-20T11:45:14;101329.78;;;4.07;100.00
14818;BME280;7500;57.698;11.986;2022-11-20T11:47:47;101332.59;;;3.93;100.00
14818;BME280;7500;57.698;11.986;2022-11-20T11:50:18;101331.66;;;3.99;100.00
14818;BME280;7500;57.698;11.986;2022-11-20T11:52:50;101287.66;;;3.73;100.00
14818;BME280;7500;57.698;11.986;2022-11-20T11:55:28;101320.34;;;3.97;100.00
14818;BME280;7500;57.698;11.986;2022-11-20T11:58:02;101329.09;;;3.94;100.00
14818;BME280;7500;57.698;11.986;2022-11-20T12:00:31;101311.66;;;3.96;100.00
14818;BME280;7500;57.698;11.986;2022-11-20T12:03:05;101316.94;;;3.93;100.00
14818;BME280;7500;57.698;11.986;2022-11-20T12:05:40;101309.97;;;3.92;100.00
14818;BME280;7500;57.698;11.986;2022-11-20T12:08:15;101315.94;;;4.02;100.00
14818;BME280;7500;57.698;11.986;2022-11-20T12:10:47;101302.94;;;3.96;100.00
14818;BME280;7500;57.698;11.986;2022-11-20T12:13:39;101300.25;;;4.03;100.00
14818;BME280;7500;57.698;11.986;2022-11-20T12:16:11;101293.44;;;3.93;100.00
14818;BME280;7500;57.698;11.986;2022-11-20T12:18:40;101297.72;;;3.97;100.00
14818;BME280;7500;57.698;11.986;2022-11-20T12:21:26;101289.94;;;3.93;100.00
14818;BME280;7500;57.698;11.986;2022-11-20T12:24:06;101290.94;;;3.84;100.00
14818;BME280;7500;57.698;11.986;2022-11-20T12:26:45;101270.94;;;3.83;100.00
14818;BME280;7500;57.698;11.986;2022-11-20T12:29:27;101278.69;;;3.89;100.00
14818;BME280;7500;57.698;11.986;2022-11-20T12:32:14;101276.84;;;3.96;100.00
14818;BME280;7500;57.698;11.986;2022-11-20T12:34:52;101265.44;;;4.01;100.00
14818;BME280;7500;57.698;11.986;2022-11-20T12:37:35;101256.03;;;3.91;100.00
14818;BME280;7500;57.698;11.986;2022-11-20T12:40:15;101259.66;;;3.81;100.00
14818;BME280;7500;57.698;11.986;2022-11-20T12:43:01;101257.97;;;3.77;100.00
14818;BME280;7500;57.698;11.986;2022-11-20T12:46:03;101259.84;;;3.72;100.00
14818;BME280;7500;57.698;11.986;2022-11-20T12:51:49;101262.34;;;3.77;100.00
14818;BME280;7500;57.698;11.986;2022-11-20T12:54:39;101245.72;;;3.82;100.00
14818;BME280;7500;57.698;11.986;2022-11-20T12:57:16;101235.19;;;3.88;100.00
14818;BME280;7500;57.698;11.986;2022-11-20T13:00:10;101229.94;;;3.88;100.00
14818;BME280;7500;57.698;11.986;2022-11-20T13:02:53;101226.34;;;3.95;100.00
14818;BME280;7500;57.698;11.986;2022-11-20T13:05:30;101223.88;;;3.86;100.00
14818;BME280;7500;57.698;11.986;2022-11-20T13:08:00;101226.41;;;3.92;100.00
14818;BME280;7500;57.698;11.986;2022-11-20T13:10:33;101231.59;;;3.95;100.00
14818;BME280;7500;57.698;11.986;2022-11-20T13:13:07;101222.97;;;3.90;100.00